首页
METAR-TAF:

METAR-TAF

机场 :

道森, 育康省, 加拿大

纬度: 64-03N, 经度: 139-08W, 海拔: 370米

当前天气观测

该预报发布于15小时和19分钟前的21:00 UTC
风速4节,风向东北
温度 -1°C
湿度 86%
气压 1002 hPa
能見度: 32.2公里
少量云层高于700英尺
少量云层高于2500英尺
阴天层高于2900英尺

METAR: CYDA 192100Z 05004KT 20SM FEW007 FEW025 OVC029 M01/M03 A2958 RMK ST1SC2SC6 ST TR SLP040

时间: 05:19 (12:19 UTC)

预报

该预报发布于20小时和50分钟前的15:29 UTC
预报有效从19日的 15点(UTC)到 19日的 22点(UTC)
风速3节,风向多变
能見度: 10公里
阴天层高于6000英尺
小雪
短暂存在
从 19日的 15点(UTC)到 19日的 19点(UTC)
能見度: 4.8公里
阴天层高于3000英尺
小雪
从 19日的 1900点(UTC)
风速3节,风向多变
能見度: 10公里
多云层高于6000英尺
短暂存在
从 19日的 19点(UTC)到 19日的 22点(UTC)
能見度: 10公里
阴天层高于4000英尺
小雪

TAF: CYDA 191529Z 1915/1922 VRB03KT P6SM -SN OVC060 TEMPO 1915/1919 3SM -SN OVC030 FM191900 VRB03KT P6SM BKN060 TEMPO 1919/1922 P6SM -SN OVC040 RMK NXT FCST WILL BE ISSUED AT 201445Z

超过4000个机场的气象观测和天气预报(METAR&TAF报告)。

可查询的气象台以黄色和红色小点在地图上表示。

将鼠标移到小点上方,可查看气象台名称。

然后点击查看天气观测和预报。

如需切换地图:点击带黑十字的绿色按钮放大地图;点击带横线的绿色按钮缩小地图;或者点击绿色箭头查看邻近地区的地图。


METAR-TAF: